Time;durP1;ratioP1;P1;durP2;ratioP2;P2;SDS_P1;SDS_P2;PMS_P1;PMS_P2;Temp;Humidity;BMP_temperature;BMP_pressure;BME280_temperature;BME280_humidity;BME280_pressure;Samples;Min_cycle;Max_cycle;Signal;HPM_P1;HPM_P2
2021/11/22 00:02:22;;;;;;;23.55;14.13;;;;;;;;;;5132813;27;20257;-83
2021/11/22 00:04:50;;;;;;;20.23;12.77;;;;;;;;;;5132356;27;20228;-83
2021/11/22 00:07:17;;;;;;;19.02;13.15;;;;;;;;;;5132646;27;20236;-82
2021/11/22 00:09:46;;;;;;;23.98;14.07;;;;;;;;;;5127100;27;20310;-82
2021/11/22 00:12:13;;;;;;;19.80;13.00;;;;;;;;;;5131754;27;20239;-83
2021/11/22 00:14:40;;;;;;;19.08;12.85;;;;;;;;;;5130787;27;20962;-82
2021/11/22 00:17:08;;;;;;;21.75;13.05;;;;;;;;;;5132098;27;20289;-83
2021/11/22 00:19:35;;;;;;;20.13;13.13;;;;;;;;;;5133150;27;20236;-83
2021/11/22 00:22:03;;;;;;;20.00;12.80;;;;;;;;;;5131734;27;20232;-83
2021/11/22 00:24:30;;;;;;;18.45;13.18;;;;;;;;;;5133168;27;20635;-82
2021/11/22 00:26:59;;;;;;;21.27;12.38;;;;;;;;;;5131392;27;20194;-83
2021/11/22 00:29:26;;;;;;;20.45;12.70;;;;;;;;;;5109905;28;20755;-83
2021/11/22 00:31:54;;;;;;;21.58;12.95;;;;;;;;;;5120953;27;20631;-83
2021/11/22 00:34:21;;;;;;;26.95;15.40;;;;;;;;;;5131266;27;20190;-83
2021/11/22 00:36:48;;;;;;;23.17;13.25;;;;;;;;;;5131820;27;20257;-82
2021/11/22 00:39:16;;;;;;;22.88;13.13;;;;;;;;;;5132217;27;20198;-83
2021/11/22 00:41:43;;;;;;;19.27;12.27;;;;;;;;;;5130246;27;20236;-82
2021/11/22 00:44:11;;;;;;;22.88;14.35;;;4.80;99.90;;;;;;5131960;27;20232;-83
2021/11/22 00:46:38;;;;;;;18.73;13.45;;;;;;;;;;5131684;27;20268;-83
2021/11/22 00:49:06;;;;;;;19.85;13.70;;;;;;;;;;5131949;27;20228;-83
2021/11/22 00:51:33;;;;;;;17.13;12.38;;;;;;;;;;5127744;27;20240;-84
2021/11/22 00:54:00;;;;;;;22.02;14.40;;;;;;;;;;5131153;27;20231;-84
2021/11/22 00:56:29;;;;;;;22.45;13.88;;;;;;;;;;5131525;27;20201;-83
2021/11/22 00:58:56;;;;;;;22.83;14.18;;;4.60;99.90;;;;;;5132054;27;20204;-83
2021/11/22 01:01:24;;;;;;;21.08;13.77;;;4.70;99.90;;;;;;5131033;27;20217;-83
2021/11/22 01:03:51;;;;;;;20.80;15.07;;;;;;;;;;5130624;27;20189;-83
2021/11/22 01:06:18;;;;;;;18.95;13.52;;;;;;;;;;5131740;27;20194;-83
2021/11/22 01:08:45;;;;;;;24.02;12.95;;;;;;;;;;5118425;27;20239;-83
2021/11/22 01:11:13;;;;;;;19.95;12.52;;;;;;;;;;5128966;27;20250;-83
2021/11/22 01:13:40;;;;;;;23.75;14.30;;;;;;;;;;5131845;27;20218;-83
2021/11/22 01:16:08;;;;;;;23.17;13.88;;;6.20;99.90;;;;;;5130150;27;20284;-83
2021/11/22 01:18:36;;;;;;;22.27;12.90;;;4.80;99.90;;;;;;5130244;27;20245;-83
2021/11/22 01:21:03;;;;;;;25.05;15.30;;;;;;;;;;5129920;27;20261;-82
2021/11/22 01:23:30;;;;;;;22.38;12.75;;;;;;;;;;5130958;27;21080;-83
2021/11/22 01:25:59;;;;;;;21.85;12.20;;;;;;;;;;5131674;27;20615;-83
2021/11/22 01:28:26;;;;;;;21.42;12.85;;;;;;;;;;5128938;27;20221;-83
2021/11/22 01:30:53;;;;;;;22.00;11.02;;;;;;;;;;5127448;27;20623;-83
2021/11/22 01:33:20;;;;;;;21.25;13.43;;;;;;;;;;5131796;27;20190;-83
2021/11/22 01:35:49;;;;;;;18.35;11.77;;;;;;;;;;5129339;27;20236;-82
2021/11/22 01:38:16;;;;;;;16.80;11.25;;;;;;;;;;5131302;27;20229;-83
2021/11/22 01:40:44;;;;;;;19.75;12.48;;;;;;;;;;5129878;27;20228;-82
2021/11/22 01:43:14;;;;;;;21.20;13.10;;;;;;;;;;5131167;27;20231;-83
2021/11/22 01:45:41;;;;;;;20.95;12.02;;;;;;;;;;5130520;27;20200;-83
2021/11/22 01:48:08;;;;;;;19.00;12.60;;;;;;;;;;5126043;27;20273;-83
2021/11/22 01:50:35;;;;;;;24.63;13.85;;;;;;;;;;5129847;27;20225;-83
2021/11/22 01:53:04;;;;;;;22.17;13.80;;;4.80;99.90;;;;;;5131206;27;20275;-83
2021/11/22 01:55:32;;;;;;;20.23;13.50;;;4.80;99.90;;;;;;5130574;27;20190;-82
2021/11/22 01:58:00;;;;;;;25.20;13.75;;;5.00;99.90;;;;;;5129346;27;20246;-82
2021/11/22 02:00:30;;;;;;;21.00;14.35;;;4.70;99.90;;;;;;5130287;27;20240;-82
2021/11/22 02:02:58;;;;;;;23.20;14.82;;;4.70;99.90;;;;;;5130511;27;20223;-83
2021/11/22 02:05:25;;;;;;;21.52;12.30;;;;;;;;;;5131177;27;20296;-83
2021/11/22 02:07:53;;;;;;;26.38;12.95;;;;;;;;;;5130595;27;20201;-83
2021/11/22 02:10:21;;;;;;;20.75;14.30;;;4.70;99.90;;;;;;5130194;27;20243;-83
2021/11/22 02:12:49;;;;;;;22.73;13.18;;;;;;;;;;5131305;27;20192;-83
2021/11/22 02:15:17;;;;;;;19.38;13.18;;;4.40;99.90;;;;;;5129970;27;20436;-83
2021/11/22 02:17:45;;;;;;;21.70;14.23;;;4.70;99.90;;;;;;5130482;27;20642;-82
2021/11/22 02:20:17;;;;;;;21.20;13.80;;;4.70;99.90;;;;;;5114184;28;20271;-83
2021/11/22 02:22:45;;;;;;;26.85;13.45;;;;;;;;;;5139826;27;20227;-83
2021/11/22 02:25:13;;;;;;;22.85;13.95;;;;;;;;;;5139392;27;20192;-83
2021/11/22 02:27:40;;;;;;;23.33;13.55;;;;;;;;;;5130711;27;20225;-83
2021/11/22 02:30:09;;;;;;;25.00;13.90;;;4.80;99.90;;;;;;5129573;27;20196;-82
2021/11/22 02:32:37;;;;;;;18.90;12.82;;;4.70;99.90;;;;;;5129747;27;20208;-83
2021/11/22 02:35:05;;;;;;;32.38;16.40;;;;;;;;;;5130410;27;20220;-82
2021/11/22 02:37:33;;;;;;;25.17;14.25;;;4.60;99.90;;;;;;5130570;28;20239;-83
2021/11/22 02:40:00;;;;;;;20.42;13.75;;;;;;;;;;5130618;28;20698;-83
2021/11/22 02:42:29;;;;;;;23.10;13.10;;;4.60;99.90;;;;;;5128989;28;20301;-82
2021/11/22 02:44:56;;;;;;;19.95;12.50;;;;;;;;;;5131355;28;20192;-83
2021/11/22 02:47:24;;;;;;;23.17;14.52;;;4.70;99.90;;;;;;5124700;28;20327;-83
2021/11/22 02:49:51;;;;;;;21.70;12.75;;;;;;;;;;5125741;28;20288;-82
2021/11/22 02:52:18;;;;;;;21.25;13.77;;;;;;;;;;5127343;28;20292;-82
2021/11/22 02:54:47;;;;;;;20.00;12.60;;;4.70;99.90;;;;;;5130743;28;20276;-82
2021/11/22 02:57:15;;;;;;;23.42;13.77;;;4.70;99.90;;;;;;5129191;28;20280;-82
2021/11/22 02:59:42;;;;;;;21.90;14.20;;;;;;;;;;5130137;28;20597;-82
2021/11/22 03:02:12;;;;;;;25.70;13.18;;;4.70;99.90;;;;;;5130167;28;20230;-82
2021/11/22 03:04:40;;;;;;;20.52;11.80;;;4.60;99.90;;;;;;5124760;28;20244;-82
2021/11/22 03:07:08;;;;;;;17.55;11.13;;;;;;;;;;5130411;28;20205;-82
2021/11/22 03:09:35;;;;;;;21.92;13.00;;;;;;;;;;5129104;27;20273;-82
2021/11/22 03:12:06;;;;;;;18.75;11.05;;;4.80;99.90;;;;;;5132051;27;20197;-82
2021/11/22 03:14:34;;;;;;;18.10;11.63;;;4.70;99.90;;;;;;5130225;28;20727;-82
2021/11/22 03:17:02;;;;;;;17.15;12.18;;;4.70;99.90;;;;;;5130004;28;20658;-82
2021/11/22 03:19:29;;;;;;;23.23;13.30;;;;;;;;;;5130446;28;20575;-82
2021/11/22 03:21:58;;;;;;;21.83;14.02;;;;;;;;;;5129408;28;20235;-82
2021/11/22 03:24:25;;;;;;;23.05;14.10;;;;;;;;;;5124426;28;20232;-82
2021/11/22 03:26:52;;;;;;;20.70;13.65;;;;;;;;;;5130296;28;20220;-82
2021/11/22 03:29:21;;;;;;;21.60;12.57;;;;;;;;;;5129958;28;20223;-82
2021/11/22 03:31:48;;;;;;;25.25;13.68;;;;;;;;;;5129552;28;20235;-82
2021/11/22 03:34:15;;;;;;;21.00;14.32;;;;;;;;;;5130659;28;20228;-82
2021/11/22 03:36:43;;;;;;;27.33;14.10;;;4.70;99.90;;;;;;5129367;28;20192;-82
2021/11/22 03:39:16;;;;;;;24.25;15.00;;;4.70;99.90;;;;;;5130125;28;20662;-82
2021/11/22 03:41:43;;;;;;;24.73;15.25;;;;;;;;;;5123268;28;20235;-82
2021/11/22 03:44:14;;;;;;;23.02;14.02;;;;;;;;;;5130928;27;20213;-82
2021/11/22 03:46:45;;;;;;;21.17;15.90;;;4.80;99.90;;;;;;5133150;27;20213;-83
2021/11/22 03:49:13;;;;;;;21.92;14.65;;;;;;;;;;5133572;27;20536;-82
2021/11/22 03:51:40;;;;;;;27.33;14.95;;;;;;;;;;5132077;27;20251;-82
2021/11/22 03:54:07;;;;;;;26.73;14.70;;;;;;;;;;5134050;27;20194;-82
2021/11/22 03:56:35;;;;;;;24.55;15.00;;;4.50;99.90;;;;;;5133691;27;20194;-82
2021/11/22 03:59:02;;;;;;;23.38;13.60;;;;;;;;;;5132422;27;20283;-82
2021/11/22 04:01:29;;;;;;;24.48;16.08;;;;;;;;;;5132669;27;20227;-82
2021/11/22 04:03:58;;;;;;;23.77;15.10;;;;;;;;;;5132733;27;20288;-82
2021/11/22 04:06:25;;;;;;;37.85;16.80;;;;;;;;;;5133309;27;20239;-82
2021/11/22 04:08:52;;;;;;;20.45;12.98;;;;;;;;;;5132768;27;20235;-81
2021/11/22 04:11:20;;;;;;;23.88;14.73;;;;;;;;;;5132665;27;20615;-82
2021/11/22 04:13:47;;;;;;;21.17;13.85;;;;;;;;;;5132966;27;20202;-82
2021/11/22 04:16:14;;;;;;;26.63;13.85;;;;;;;;;;5132233;27;20663;-82
2021/11/22 04:18:42;;;;;;;21.23;13.32;;;4.60;99.90;;;;;;5132943;27;20289;-82
2021/11/22 04:21:11;;;;;;;19.58;14.43;;;;;;;;;;5133113;27;20686;-82
2021/11/22 04:23:38;;;;;;;24.33;12.82;;;;;;;;;;5131369;27;20338;-82
2021/11/22 04:26:08;;;;;;;24.42;14.80;;;;;;;;;;5133073;27;20662;-82
2021/11/22 04:28:35;;;;;;;16.85;10.85;;;;;;;;;;5132503;27;20599;-82
2021/11/22 04:31:02;;;;;;;20.90;11.65;;;;;;;;;;5132154;27;20250;-82
2021/11/22 04:33:29;;;;;;;19.23;11.27;;;;;;;;;;5131831;27;20286;-82
2021/11/22 04:35:56;;;;;;;13.75;10.63;;;;;;;;;;5127619;27;20220;-81
2021/11/22 04:38:25;;;;;;;18.30;11.50;;;;;;;;;;5133178;27;20231;-82
2021/11/22 04:40:52;;;;;;;15.40;10.20;;;;;;;;;;5131981;27;20232;-82
2021/11/22 04:43:19;;;;;;;15.40;9.75;;;;;;;;;;5131254;27;20701;-82
2021/11/22 04:45:46;;;;;;;18.25;10.75;;;;;;;;;;5132758;27;20218;-82
2021/11/22 04:48:14;;;;;;;18.77;11.57;;;;;;;;;;5126299;27;20271;-82
2021/11/22 04:50:41;;;;;;;15.93;9.85;;;;;;;;;;5132120;27;20266;-82
2021/11/22 04:53:08;;;;;;;17.98;10.30;;;;;;;;;;5131797;27;20232;-82
2021/11/22 04:55:37;;;;;;;18.85;10.63;;;;;;;;;;5131827;27;20225;-82
2021/11/22 04:58:04;;;;;;;15.80;9.05;;;;;;;;;;5131152;27;20217;-82
2021/11/22 05:00:31;;;;;;;16.95;10.30;;;;;;;;;;5131563;27;20749;-82
2021/11/22 05:02:59;;;;;;;16.55;11.10;;;;;;;;;;5131988;27;20240;-82
2021/11/22 05:05:26;;;;;;;15.05;9.07;;;;;;;;;;5131063;27;20225;-82
2021/11/22 05:07:53;;;;;;;15.40;10.75;;;;;;;;;;5131940;27;20257;-82
2021/11/22 05:10:22;;;;;;;15.20;10.35;;;;;;;;;;5130635;27;20197;-82
2021/11/22 05:12:51;;;;;;;15.88;10.18;;;;;;;;;;5132464;27;20219;-82
2021/11/22 05:15:18;;;;;;;15.75;10.27;;;;;;;;;;5131325;27;20546;-82
2021/11/22 05:17:45;;;;;;;19.67;10.98;;;;;;;;;;5131491;27;20209;-82
2021/11/22 05:20:12;;;;;;;19.55;10.70;;;;;;;;;;5131259;27;20246;-82
2021/11/22 05:22:39;;;;;;;15.70;11.65;;;;;;;;;;5131854;27;20262;-82
2021/11/22 05:25:07;;;;;;;13.43;9.48;;;;;;;;;;5131467;27;20202;-82
2021/11/22 05:27:34;;;;;;;17.00;12.15;;;;;;;;;;5125928;27;20916;-82
2021/11/22 05:30:03;;;;;;;20.45;9.85;;;;;;;;;;5131183;27;20248;-82
2021/11/22 05:32:30;;;;;;;15.88;11.32;;;;;;;;;;5130986;27;20622;-81
2021/11/22 05:34:57;;;;;;;14.82;9.95;;;4.60;99.90;;;;;;5131142;27;20285;-82
2021/11/22 05:37:27;;;;;;;16.77;10.40;;;;;;;;;;5131374;27;20249;-82
2021/11/22 05:39:55;;;;;;;20.45;10.82;;;;;;;;;;5130630;27;20229;-82
2021/11/22 05:42:22;;;;;;;15.35;9.30;;;;;;;;;;5130158;27;20708;-82
2021/11/22 05:44:49;;;;;;;16.83;10.13;;;;;;;;;;5130869;27;20217;-82
2021/11/22 05:47:18;;;;;;;19.42;10.88;;;;;;;;;;5131457;27;20229;-82
2021/11/22 05:49:46;;;;;;;14.40;10.18;;;4.50;99.90;;;;;;5130735;27;20212;-82
2021/11/22 05:52:13;;;;;;;14.43;9.10;;;;;;;;;;5129857;27;20185;-82
2021/11/22 05:54:47;;;;;;;12.73;8.13;;;;;;;;;;5130576;27;20247;-82
2021/11/22 05:57:14;;;;;;;18.88;10.73;;;;;;;;;;5131137;27;20202;-82
2021/11/22 05:59:41;;;;;;;17.92;10.43;;;;;;;;;;5130365;27;20250;-82
2021/11/22 06:02:08;;;;;;;13.77;9.45;;;;;;;;;;5129976;27;20200;-82
2021/11/22 06:04:37;;;;;;;13.52;9.75;;;;;;;;;;5129630;27;20599;-82
2021/11/22 06:07:05;;;;;;;13.40;8.80;;;;;;;;;;5130499;27;20193;-82
2021/11/22 06:09:32;;;;;;;14.50;9.55;;;;;;;;;;5130481;27;20246;-82
2021/11/22 06:11:59;;;;;;;12.63;9.02;;;;;;;;;;5129138;27;20584;-82
2021/11/22 06:14:27;;;;;;;15.73;8.98;;;;;;;;;;5130707;27;20221;-82
2021/11/22 06:16:54;;;;;;;15.30;8.60;;;;;;;;;;5129814;27;20610;-82
2021/11/22 06:19:21;;;;;;;13.13;8.90;;;;;;;;;;5130100;27;20212;-82
2021/11/22 06:21:50;;;;;;;15.60;10.93;;;;;;;;;;5129434;27;21295;-82
2021/11/22 06:24:17;;;;;;;14.00;10.70;;;;;;;;;;5127964;27;20859;-82
2021/11/22 06:26:45;;;;;;;18.58;9.93;;;;;;;;;;5125329;27;20588;-82
2021/11/22 06:29:17;;;;;;;16.70;10.35;;;;;;;;;;5125712;27;20197;-82
2021/11/22 06:31:44;;;;;;;12.43;8.63;;;;;;;;;;5115528;27;20288;-82
2021/11/22 06:34:11;;;;;;;14.10;9.80;;;;;;;;;;5129856;27;20212;-83
2021/11/22 06:36:39;;;;;;;17.73;10.50;;;;;;;;;;5130064;27;20238;-83
2021/11/22 06:39:07;;;;;;;16.95;10.30;;;4.80;99.90;;;;;;5130850;28;20566;-82
2021/11/22 06:41:35;;;;;;;15.15;11.25;;;;;;;;;;5129132;28;20221;-82
2021/11/22 06:44:02;;;;;;;11.85;10.20;;;;;;;;;;5129340;28;20273;-83
2021/11/22 06:46:29;;;;;;;16.05;10.88;;;;;;;;;;5129594;28;20229;-82
2021/11/22 06:48:56;;;;;;;13.23;9.57;;;;;;;;;;5130814;28;20295;-83
2021/11/22 06:51:23;;;;;;;13.20;9.35;;;;;;;;;;5128095;28;20659;-82
2021/11/22 06:53:51;;;;;;;13.40;9.05;;;;;;;;;;5130561;28;20264;-82
2021/11/22 06:56:19;;;;;;;12.98;9.60;;;;;;;;;;5129824;28;20197;-83
2021/11/22 06:58:46;;;;;;;12.75;9.27;;;;;;;;;;5129414;28;20229;-82
2021/11/22 07:01:14;;;;;;;15.95;10.20;;;;;;;;;;5129977;28;20611;-82
2021/11/22 07:03:41;;;;;;;15.27;8.73;;;;;;;;;;5130125;28;20233;-82
2021/11/22 07:06:08;;;;;;;10.82;8.20;;;;;;;;;;5130418;28;21034;-82
2021/11/22 07:08:36;;;;;;;12.32;9.60;;;;;;;;;;5129310;28;20229;-83
2021/11/22 07:11:03;;;;;;;16.63;9.75;;;;;;;;;;5134515;27;20186;-83
2021/11/22 07:13:33;;;;;;;16.02;10.20;;;;;;;;;;5129111;28;21139;-82
2021/11/22 07:16:01;;;;;;;13.23;9.90;;;;;;;;;;5130001;28;20259;-82
2021/11/22 07:18:28;;;;;;;11.05;8.43;;;;;;;;;;5129636;27;20232;-82
2021/11/22 07:20:55;;;;;;;9.15;8.25;;;;;;;;;;5132828;27;20651;-82
2021/11/22 07:23:24;;;;;;;12.95;8.52;;;;;;;;;;5133119;27;20206;-82
2021/11/22 07:25:51;;;;;;;11.38;9.52;;;;;;;;;;5117419;27;20765;-82
2021/11/22 07:28:18;;;;;;;12.82;8.75;;;;;;;;;;5133384;27;20245;-82
2021/11/22 07:30:47;;;;;;;10.43;7.85;;;;;;;;;;5133240;27;20235;-82
2021/11/22 07:33:14;;;;;;;16.42;8.75;;;;;;;;;;5133760;27;20549;-83
2021/11/22 07:35:41;;;;;;;13.30;8.32;;;;;;;;;;5132606;27;20200;-82
2021/11/22 07:38:09;;;;;;;13.10;8.40;;;;;;;;;;5133842;27;20195;-82
2021/11/22 07:40:36;;;;;;;14.60;8.82;;;;;;;;;;5132192;27;20603;-82
2021/11/22 07:43:04;;;;;;;11.43;7.25;;;4.70;99.90;;;;;;5133557;27;20685;-82
2021/11/22 07:45:31;;;;;;;13.73;9.10;;;;;;;;;;5132563;27;20253;-82
2021/11/22 07:48:00;;;;;;;11.02;7.68;;;;;;;;;;5133407;27;20638;-82
2021/11/22 07:50:29;;;;;;;13.82;9.68;;;4.60;99.90;;;;;;5132576;27;20198;-82
2021/11/22 07:52:56;;;;;;;14.73;9.60;;;;;;;;;;5132777;27;20719;-82
2021/11/22 07:55:24;;;;;;;11.88;8.43;;;;;;;;;;5133288;27;20862;-82
2021/11/22 07:57:52;;;;;;;12.63;8.20;;;4.80;99.90;;;;;;5133819;27;20264;-82
2021/11/22 08:00:20;;;;;;;10.73;7.85;;;4.70;99.90;;;;;;5131808;27;20214;-82
2021/11/22 08:02:48;;;;;;;10.90;7.75;;;;;;;;;;5133536;27;20666;-82
2021/11/22 08:05:17;;;;;;;11.35;7.85;;;4.90;99.90;;;;;;5132392;27;20202;-82
2021/11/22 08:07:44;;;;;;;15.32;8.68;;;;;;;;;;5133111;27;20250;-82
2021/11/22 08:10:24;;;;;;;12.35;8.23;;;4.70;99.90;;;;;;5131493;27;20298;-81
2021/11/22 08:12:52;;;;;;;10.55;6.93;;;;;;;;;;5131164;27;20216;-82
2021/11/22 08:15:20;;;;;;;8.77;7.28;;;;;;;;;;5131909;27;20571;-81
2021/11/22 08:17:47;;;;;;;14.00;8.45;;;5.00;99.90;;;;;;5133147;27;20258;-82
2021/11/22 08:20:17;;;;;;;10.80;8.50;;;4.90;99.90;;;;;;5132075;27;20198;-82
2021/11/22 08:22:45;;;;;;;14.80;8.23;;;;;;;;;;5132592;27;20194;-82
2021/11/22 08:25:13;;;;;;;11.52;7.80;;;5.00;99.90;;;;;;5120343;27;20200;-82
2021/11/22 08:27:41;;;;;;;9.98;8.23;;;5.10;99.90;;;;;;5126499;27;20701;-82
2021/11/22 08:30:11;;;;;;;9.63;7.68;;;5.10;99.90;;;;;;5131811;27;20198;-81
2021/11/22 08:32:40;;;;;;;9.90;7.53;;;4.90;99.90;;;;;;5131502;27;20658;-82
2021/11/22 08:35:07;;;;;;;8.75;6.60;;;;;;;;;;5132460;27;20198;-82
2021/11/22 08:37:36;;;;;;;8.23;6.68;;;;;;;;;;5131978;27;20234;-82
2021/11/22 08:40:03;;;;;;;12.82;10.15;;;;;;;;;;5132600;27;20197;-82
2021/11/22 08:42:30;;;;;;;11.02;7.72;;;;;;;;;;5131781;27;20190;-82
2021/11/22 08:44:59;;;;;;;9.80;7.18;;;;;;;;;;5131616;27;20217;-82
2021/11/22 08:47:27;;;;;;;12.40;8.73;;;;;;;;;;5131342;27;20254;-82
2021/11/22 08:49:54;;;;;;;8.20;6.43;;;;;;;;;;5131485;28;20217;-82
2021/11/22 08:52:22;;;;;;;7.95;6.65;;;;;;;;;;5130512;28;20198;-82
2021/11/22 08:54:50;;;;;;;18.75;11.68;;;;;;;;;;5130989;28;20651;-82
2021/11/22 08:57:18;;;;;;;11.48;8.88;;;;;;;;;;5130459;28;20628;-82
2021/11/22 08:59:46;;;;;;;11.55;7.55;;;;;;;;;;5130430;28;20197;-82
2021/11/22 09:02:13;;;;;;;10.50;7.53;;;;;;;;;;5129959;28;20281;-82
2021/11/22 09:04:40;;;;;;;8.73;7.45;;;;;;;;;;5130665;28;20224;-82
2021/11/22 09:07:08;;;;;;;11.63;8.57;;;;;;;;;;5130684;28;20202;-82
2021/11/22 09:09:36;;;;;;;12.23;7.90;;;;;;;;;;5130270;28;20193;-82
2021/11/22 09:12:04;;;;;;;8.75;7.85;;;;;;;;;;5129411;28;20651;-82
2021/11/22 09:14:32;;;;;;;12.57;7.95;;;;;;;;;;5129722;28;20193;-82
2021/11/22 09:17:00;;;;;;;17.30;12.68;;;;;;;;;;5130056;28;20247;-82
2021/11/22 09:19:27;;;;;;;9.55;8.15;;;;;;;;;;5130579;28;20231;-82
2021/11/22 09:21:54;;;;;;;9.23;7.00;;;;;;;;;;5130632;28;20198;-82
2021/11/22 09:24:21;;;;;;;10.07;7.82;;;;;;;;;;5130325;28;20292;-82
2021/11/22 09:26:49;;;;;;;8.70;7.55;;;;;;;;;;5130621;28;20263;-82
2021/11/22 09:29:17;;;;;;;10.52;7.13;;;;;;;;;;5130612;28;20202;-82
2021/11/22 09:31:44;;;;;;;10.88;8.05;;;;;;;;;;5130060;28;20200;-82
2021/11/22 09:34:12;;;;;;;12.25;8.95;;;;;;;;;;5130422;28;20198;-82
2021/11/22 09:36:39;;;;;;;8.95;7.55;;;;;;;;;;5130603;28;20193;-82
2021/11/22 09:39:06;;;;;;;10.25;8.50;;;;;;;;;;5130005;27;20206;-81
2021/11/22 09:41:34;;;;;;;12.68;8.30;;;;;;;;;;5128359;27;20189;-82
2021/11/22 09:44:03;;;;;;;12.88;7.90;;;;;;;;;;5130767;28;20293;-82
2021/11/22 09:46:32;;;;;;;12.15;9.15;;;;;;;;;;5090024;28;1126659;-82
2021/11/22 09:48:59;;;;;;;10.68;9.57;;;;;;;;;;5131390;27;20235;-82
2021/11/22 09:51:26;;;;;;;14.52;9.70;;;;;;;;;;5129174;27;20231;-82
2021/11/22 09:53:53;;;;;;;11.00;8.23;;;;;;;;;;5125250;27;20229;-82
2021/11/22 09:56:21;;;;;;;14.13;10.30;;;;;;;;;;5129962;27;20724;-82
2021/11/22 09:58:48;;;;;;;17.52;9.55;;;;;;;;;;5131206;27;20217;-82
2021/11/22 10:01:16;;;;;;;10.90;8.18;;;;;;;;;;5129604;27;20197;-82
2021/11/22 10:03:58;;;;;;;12.05;8.43;;;5.80;99.90;;;;;;5130801;27;20224;-82
2021/11/22 10:06:26;;;;;;;10.05;8.20;;;;;;;;;;5128683;27;20197;-82
2021/11/22 10:08:53;;;;;;;13.38;9.25;;;;;;;;;;5112420;27;20224;-82
2021/11/22 10:11:20;;;;;;;13.57;10.15;;;;;;;;;;5128339;27;20189;-82
2021/11/22 10:13:47;;;;;;;11.88;9.13;;;;;;;;;;5131655;27;20216;-82
2021/11/22 10:16:24;;;;;;;16.17;8.90;;;5.80;99.90;;;;;;5129400;27;20190;-82
2021/11/22 10:18:55;;;;;;;12.00;8.90;;;5.80;99.90;;;;;;5129513;27;20201;-82
2021/11/22 10:21:24;;;;;;;12.70;9.70;;;5.80;99.90;;;;;;5130032;27;20250;-82
2021/11/22 10:23:57;;;;;;;12.40;9.80;;;5.90;99.90;;;;;;5130893;27;21026;-82
2021/11/22 10:26:25;;;;;;;15.40;11.43;;;;;;;;;;5130375;27;20190;-82
2021/11/22 10:28:54;;;;;;;11.45;9.32;;;5.90;99.90;;;;;;5130542;27;20251;-82
2021/11/22 10:31:23;;;;;;;9.85;8.10;;;6.00;99.90;;;;;;5129486;27;20564;-82
2021/11/22 10:33:54;;;;;;;16.35;12.73;;;6.00;99.90;;;;;;5130627;27;20221;-82
2021/11/22 10:36:23;;;;;;;18.40;11.43;;;6.00;99.90;;;;;;5130629;27;20233;-82
2021/11/22 10:38:52;;;;;;;8.75;7.20;;;6.00;99.90;;;;;;5130575;27;20625;-82
2021/11/22 10:41:21;;;;;;;12.07;8.35;;;6.10;99.90;;;;;;5129557;28;20197;-82
2021/11/22 10:43:51;;;;;;;9.38;7.72;;;6.10;99.90;;;;;;5128921;28;20283;-82
2021/11/22 10:46:23;;;;;;;11.95;8.07;;;6.00;99.90;;;;;;5130861;28;20267;-82
2021/11/22 10:48:54;;;;;;;14.10;8.07;;;;;;;;;;5127086;27;20201;-82
2021/11/22 10:51:25;;;;;;;9.65;8.65;;;6.10;99.90;;;;;;5125462;28;20274;-81
2021/11/22 10:53:53;;;;;;;13.05;8.95;;;6.10;99.90;;;;;;5130022;27;20240;-81
2021/11/22 10:56:22;;;;;;;10.45;9.10;;;6.00;99.90;;;;;;5133588;27;20205;-81
2021/11/22 10:58:56;;;;;;;11.35;7.78;;;6.10;99.90;;;;;;5116344;27;20202;-81
2021/11/22 11:01:41;;;;;;;12.90;8.32;;;6.10;99.90;;;;;;5126961;27;20514;-82
2021/11/22 11:04:19;;;;;;;11.35;7.68;;;6.20;99.90;;;;;;5132610;27;20258;-82
2021/11/22 11:06:58;;;;;;;26.73;9.82;;;6.20;99.90;;;;;;5133059;27;20246;-81
2021/11/22 11:09:32;;;;;;;9.93;8.48;;;6.20;99.90;;;;;;5133751;27;20197;-81
2021/11/22 11:12:10;;;;;;;11.60;7.85;;;6.20;99.90;;;;;;5136615;27;20551;-81
2021/11/22 11:14:40;;;;;;;14.63;8.35;;;6.00;99.90;;;;;;5153680;27;20205;-81
2021/11/22 11:17:16;;;;;;;12.15;9.05;;;6.10;99.90;;;;;;5127611;27;20258;-82
2021/11/22 11:19:45;;;;;;;13.35;10.35;;;;;;;;;;5133865;27;20198;-82
2021/11/22 11:22:12;;;;;;;12.00;8.93;;;;;;;;;;5133199;27;20242;-82
2021/11/22 11:24:39;;;;;;;14.30;8.10;;;;;;;;;;5134004;27;20317;-82
2021/11/22 11:27:07;;;;;;;12.70;7.75;;;;;;;;;;5133852;27;20224;-82
2021/11/22 11:29:34;;;;;;;13.40;8.48;;;;;;;;;;5133356;27;20720;-82
2021/11/22 11:32:01;;;;;;;9.23;7.30;;;;;;;;;;5133307;27;20569;-82
2021/11/22 11:34:30;;;;;;;10.98;7.88;;;6.00;99.90;;;;;;5133781;27;20194;-82
2021/11/22 11:37:18;;;;;;;15.10;9.20;;;6.10;99.90;;;;;;5134031;27;20202;-82
2021/11/22 11:40:28;;;;;;;13.07;7.45;;;6.10;99.90;;;;;;5133864;27;20224;-81
2021/11/22 11:43:42;;;;;;;13.65;8.13;;;6.10;99.90;;;;;;5133114;27;20194;-82
2021/11/22 11:46:20;;;;;;;11.30;7.10;;;6.00;99.90;;;;;;5132864;27;20201;-82
2021/11/22 11:48:58;;;;;;;12.57;9.00;;;6.10;99.90;;;;;;5125696;27;20782;-81
2021/11/22 11:51:32;;;;;;;13.63;8.38;;;6.10;99.90;;;;;;5130037;27;20978;-81
2021/11/22 11:54:10;;;;;;;10.05;7.53;;;6.10;99.90;;;;;;5133572;27;20220;-82
2021/11/22 11:56:39;;;;;;;12.73;8.90;;;6.00;99.90;;;;;;5132516;27;20239;-82
2021/11/22 11:59:13;;;;;;;11.80;7.63;;;;;;;;;;5113760;28;20202;-81
2021/11/22 12:02:00;;;;;;;11.70;7.88;;;6.00;99.90;;;;;;5131581;27;20242;-81
2021/11/22 12:04:27;;;;;;;9.15;7.70;;;;;;;;;;5113128;28;20298;-82
2021/11/22 12:06:56;;;;;;;10.07;7.30;;;5.70;99.90;;;;;;5113480;27;20277;-82
2021/11/22 12:09:46;;;;;;;9.05;7.88;;;5.70;99.90;;;;;;5132291;27;20205;-81
2021/11/22 12:12:23;;;;;;;13.52;7.47;;;5.90;99.90;;;;;;5129003;27;20213;-82
2021/11/22 12:14:52;;;;;;;10.82;7.72;;;5.90;99.90;;;;;;5111536;28;20665;-81
2021/11/22 12:17:54;;;;;;;12.52;7.45;;;5.80;99.90;;;;;;5130983;27;20703;-82
2021/11/22 12:20:42;;;;;;;10.63;7.60;;;5.90;99.90;;;;;;5127350;27;20278;-82
2021/11/22 12:23:11;;;;;;;7.90;6.88;;;5.90;99.90;;;;;;5133035;27;20932;-82
2021/11/22 12:25:45;;;;;;;9.82;7.63;;;5.90;99.90;;;;;;5132742;27;20546;-82
2021/11/22 12:28:14;;;;;;;14.82;7.55;;;5.90;99.90;;;;;;5132614;27;20198;-82
2021/11/22 12:30:43;;;;;;;9.48;7.13;;;5.80;99.90;;;;;;5132890;27;20204;-82
2021/11/22 12:33:35;;;;;;;10.68;7.45;;;5.80;99.90;;;;;;5130685;27;20722;-81
2021/11/22 12:36:06;;;;;;;14.40;7.07;;;5.70;99.90;;;;;;5130434;27;20201;-81
2021/11/22 12:38:34;;;;;;;7.40;5.70;;;5.80;99.90;;;;;;5132034;27;20242;-81
2021/11/22 12:41:04;;;;;;;8.90;7.68;;;5.80;99.90;;;;;;5131782;27;20692;-82
2021/11/22 12:43:40;;;;;;;6.93;6.22;;;5.90;99.90;;;;;;5132694;27;20206;-82
2021/11/22 12:46:09;;;;;;;9.88;7.30;;;5.90;99.90;;;;;;5131948;27;20225;-82
2021/11/22 12:48:38;;;;;;;12.25;7.70;;;6.10;99.90;;;;;;5131515;27;20255;-81
2021/11/22 12:51:07;;;;;;;11.48;7.20;;;6.00;99.90;;;;;;5125258;27;20253;-82
2021/11/22 12:53:35;;;;;;;10.43;7.20;;;6.00;99.90;;;;;;5132208;27;20224;-81
2021/11/22 12:56:05;;;;;;;10.88;6.88;;;6.00;99.90;;;;;;5131728;27;20205;-82
2021/11/22 12:58:34;;;;;;;5.88;5.38;;;6.00;99.90;;;;;;5132247;27;20205;-82
2021/11/22 13:01:02;;;;;;;8.75;6.40;;;6.00;99.90;;;;;;5131237;27;20259;-82
2021/11/22 13:03:30;;;;;;;15.65;6.40;;;;;;;;;;5132152;27;20202;-81
2021/11/22 13:05:59;;;;;;;9.20;6.53;;;5.90;99.90;;;;;;5130970;27;20213;-81
2021/11/22 13:08:53;;;;;;;12.63;6.45;;;5.90;99.90;;;;;;5132289;27;20198;-81
2021/11/22 13:11:45;;;;;;;7.88;6.30;;;5.90;99.90;;;;;;5121510;27;20209;-81
2021/11/22 13:14:20;;;;;;;8.02;5.95;;;5.90;99.90;;;;;;5132407;27;20213;-81
2021/11/22 13:16:50;;;;;;;7.85;5.68;;;;;;;;;;5121872;27;20209;-81
2021/11/22 13:19:17;;;;;;;8.80;6.80;;;;;;;;;;5125679;27;20764;-81
2021/11/22 13:21:50;;;;;;;7.40;5.82;;;6.00;99.90;;;;;;5130996;27;20201;-81
2021/11/22 13:24:19;;;;;;;12.35;7.05;;;6.00;99.90;;;;;;5131577;27;20216;-81
2021/11/22 13:26:50;;;;;;;8.02;6.03;;;6.10;99.90;;;;;;5130872;27;20193;-81
2021/11/22 13:29:19;;;;;;;8.32;5.60;;;5.90;99.90;;;;;;5132050;27;20278;-81
2021/11/22 13:31:48;;;;;;;9.73;6.88;;;6.10;99.90;;;;;;5129984;27;20597;-81
2021/11/22 13:34:18;;;;;;;8.75;6.18;;;;;;;;;;5127769;27;20193;-81
2021/11/22 13:36:50;;;;;;;8.20;7.40;;;6.10;99.90;;;;;;5129818;27;20194;-81
2021/11/22 13:39:20;;;;;;;9.82;6.90;;;6.00;99.90;;;;;;5132008;27;20622;-81
2021/11/22 13:41:57;;;;;;;6.85;6.15;;;6.10;99.90;;;;;;5134592;27;20207;-81
2021/11/22 13:44:25;;;;;;;8.57;6.60;;;6.10;99.90;;;;;;5131789;27;20192;-81
2021/11/22 13:46:55;;;;;;;9.25;6.05;;;;;;;;;;5131224;27;20224;-81
2021/11/22 13:49:23;;;;;;;12.18;6.50;;;;;;;;;;5130321;27;20205;-81
2021/11/22 13:51:50;;;;;;;7.38;5.47;;;;;;;;;;5130543;27;20536;-81
2021/11/22 13:54:19;;;;;;;8.75;6.00;;;6.00;99.90;;;;;;5131392;27;20223;-81
2021/11/22 13:56:48;;;;;;;8.45;6.40;;;5.90;99.90;;;;;;5130729;27;20189;-81
2021/11/22 13:59:19;;;;;;;8.05;6.20;;;5.90;99.90;;;;;;5131098;27;20221;-81